SCPR weather

Corte Alto Airport
Purranque, Los Lagos Region, Chile

Public forecast

Using degrees Celsius for public forecast. Weather courtesy of forecast.io.

Closest aviation weather report (METAR) to Corte Alto Airport

Report is more than 6 hours old.

Closest report is Cañal Bajo Carlos - Hott Siebert Airport, 20.5 nm (38.1 km) NNE. Retrieved 2020/02/18 21:00 UTC (6 hours ago):

SCJO 182100Z VRB04KT 9999 BKN040 21/11 Q1016

Closest aviation forecast (TAF) to Corte Alto Airport

Forecast is more than 12 hours old.

Closest forecast is Cañal Bajo Carlos - Hott Siebert Airport, 20.5 nm (38.1 km) NNE. Retrieved 2020/02/18 12:33 UTC (15 hours ago):

TAF SCJO 181026Z 1812/1912 VRB02KT 9999 BKN035 TN06/1812Z TX23/1819Z PROB40 TEMPO 1812/1813 0800 FG BKN001 BECMG 1819/1821 18005KT SCT040